createdAt,value
2019-06-15T00:00:58.585Z,17.05
2019-06-15T00:15:51.346Z,16.12
2019-06-15T00:30:51.446Z,16.85
2019-06-15T00:45:51.361Z,16.75
2019-06-15T01:00:51.264Z,17.10
2019-06-15T01:15:50.729Z,17.05
2019-06-15T01:30:50.792Z,17.57
2019-06-15T01:45:50.763Z,16.70
2019-06-15T02:00:51.208Z,17.80
2019-06-15T02:15:51.253Z,17.73
2019-06-15T02:30:51.130Z,18.60
2019-06-15T02:45:51.125Z,19.15
2019-06-15T03:00:59.614Z,17.87
2019-06-15T03:15:50.664Z,18.30
2019-06-15T03:30:50.436Z,17.60
2019-06-15T03:45:50.463Z,16.12
2019-06-15T04:15:50.788Z,19.32
2019-06-15T04:30:50.805Z,17.17
2019-06-15T04:45:56.854Z,18.25
2019-06-15T05:00:50.873Z,18.90
2019-06-15T05:15:57.266Z,19.63
2019-06-15T05:30:57.205Z,20.70
2019-06-15T05:45:51.464Z,20.90
2019-06-15T06:00:52.182Z,17.00
2019-06-15T06:15:50.798Z,16.77
2019-06-15T06:30:50.860Z,13.93
2019-06-15T06:45:50.892Z,12.13
2019-06-15T07:00:49.814Z,10.10
2019-06-15T07:15:51.263Z,11.00
2019-06-15T07:30:51.270Z,8.80
2019-06-15T07:45:51.195Z,8.33
2019-06-15T08:00:51.168Z,7.70
2019-06-15T08:15:51.533Z,8.00
2019-06-15T08:30:51.567Z,9.73
2019-06-15T08:45:54.553Z,13.63
2019-06-15T09:00:55.504Z,8.33
2019-06-15T09:15:52.651Z,7.97
2019-06-15T09:30:56.701Z,8.30
2019-06-15T09:45:50.727Z,7.10
2019-06-15T10:00:59.056Z,7.03
2019-06-15T10:15:50.527Z,9.03
2019-06-15T10:30:51.022Z,7.10
2019-06-15T10:45:51.037Z,7.20
2019-06-15T11:00:51.187Z,7.40
2019-06-15T11:15:50.787Z,8.37
2019-06-15T11:45:55.821Z,8.80
2019-06-15T12:00:53.644Z,9.60
2019-06-15T12:15:51.179Z,9.10
2019-06-15T12:30:51.106Z,8.70
2019-06-15T12:45:50.844Z,11.63
2019-06-15T13:01:02.315Z,9.20
2019-06-15T13:15:51.227Z,9.37
2019-06-15T13:30:51.124Z,9.87
2019-06-15T14:15:50.690Z,8.67
2019-06-15T14:30:53.149Z,8.20
2019-06-15T14:46:00.117Z,8.87
2019-06-15T15:15:58.893Z,8.30
2019-06-15T15:30:57.750Z,7.63
2019-06-15T15:45:58.221Z,7.83
2019-06-15T16:00:57.067Z,8.17
2019-06-15T16:15:55.657Z,7.40
2019-06-15T16:31:06.623Z,7.50
2019-06-15T16:45:57.463Z,7.10
2019-06-15T17:00:57.056Z,7.73
2019-06-15T17:30:58.405Z,7.92
2019-06-15T17:45:50.647Z,8.15
2019-06-15T18:00:52.200Z,8.55
2019-06-15T18:15:51.233Z,10.72
2019-06-15T18:30:51.112Z,9.85
2019-06-15T18:45:51.028Z,11.10
2019-06-15T19:00:53.077Z,9.78
2019-06-15T19:15:53.968Z,10.88
2019-06-15T19:30:50.664Z,12.23
2019-06-15T19:45:50.477Z,9.00
2019-06-15T20:00:50.381Z,8.45
2019-06-15T20:15:50.785Z,7.87
2019-06-15T20:30:50.820Z,8.15
2019-06-15T20:45:50.853Z,9.00
2019-06-15T21:00:50.764Z,8.20
2019-06-15T21:15:50.946Z,9.20
2019-06-15T21:30:50.811Z,9.05
2019-06-15T21:45:50.801Z,9.43
2019-06-15T22:15:51.505Z,10.78
2019-06-15T22:30:51.398Z,10.23
2019-06-15T22:45:51.379Z,10.88
2019-06-15T23:00:51.347Z,11.43
2019-06-15T23:15:51.013Z,12.20
2019-06-15T23:30:50.807Z,12.60
2019-06-15T23:45:50.769Z,13.03
